createdAt,value
2018-09-23T00:00:11.524Z,1003.42
2018-09-23T00:01:11.499Z,1003.37
2018-09-23T00:02:11.472Z,1003.36
2018-09-23T00:03:11.443Z,1003.34
2018-09-23T00:04:11.421Z,1003.36
2018-09-23T00:05:11.397Z,1003.35
2018-09-23T00:06:11.360Z,1003.35
2018-09-23T00:07:11.339Z,1003.34
2018-09-23T00:08:11.316Z,1003.34
2018-09-23T00:09:11.288Z,1003.36
2018-09-23T00:10:11.267Z,1003.28
2018-09-23T00:11:11.229Z,1003.25
2018-09-23T00:12:11.212Z,1003.21
2018-09-23T00:13:11.185Z,1003.19
2018-09-23T00:14:11.154Z,1003.12
2018-09-23T00:15:11.135Z,1003.10
2018-09-23T00:16:11.107Z,1003.06
2018-09-23T00:17:11.078Z,1003.04
2018-09-23T00:18:11.053Z,1002.97
2018-09-23T00:19:11.020Z,1002.92
2018-09-23T00:20:11.009Z,1002.88
2018-09-23T00:21:10.969Z,1002.88
2018-09-23T00:22:10.990Z,1002.91
2018-09-23T00:23:10.923Z,1002.84
2018-09-23T00:24:10.895Z,1002.86
2018-09-23T00:25:10.870Z,1002.81
2018-09-23T00:26:10.840Z,1002.77
2018-09-23T00:27:10.812Z,1002.73
2018-09-23T00:28:10.791Z,1002.71
2018-09-23T00:29:10.761Z,1002.69
2018-09-23T00:30:10.738Z,1002.63
2018-09-23T00:31:10.712Z,1002.59
2018-09-23T00:32:10.682Z,1002.56
2018-09-23T00:33:10.661Z,1002.57
2018-09-23T00:34:10.636Z,1002.53
2018-09-23T00:35:10.608Z,1002.54
2018-09-23T00:36:10.578Z,1002.56
2018-09-23T00:37:10.549Z,1002.56
2018-09-23T00:38:10.520Z,1002.52
2018-09-23T00:39:10.497Z,1002.46
2018-09-23T00:40:10.471Z,1002.48
2018-09-23T00:41:10.447Z,1002.53
2018-09-23T00:42:10.417Z,1002.59
2018-09-23T00:43:10.386Z,1002.59
2018-09-23T00:44:10.373Z,1002.54
2018-09-23T00:45:10.341Z,1002.50
2018-09-23T00:46:10.319Z,1002.50
2018-09-23T00:47:10.292Z,1002.54
2018-09-23T00:48:10.260Z,1002.49
2018-09-23T00:49:10.237Z,1002.45
2018-09-23T00:50:10.203Z,1002.38
2018-09-23T00:51:10.183Z,1002.36
2018-09-23T00:52:10.154Z,1002.39
2018-09-23T00:53:10.131Z,1002.39
2018-09-23T00:54:10.109Z,1002.30
2018-09-23T00:55:10.074Z,1002.26
2018-09-23T00:56:10.045Z,1002.19
2018-09-23T00:57:10.023Z,1002.17
2018-09-23T00:58:10.000Z,1002.22
2018-09-23T00:59:09.975Z,1002.26
2018-09-23T01:00:09.940Z,1002.24
2018-09-23T01:01:09.920Z,1002.21
2018-09-23T01:02:09.890Z,1002.23
2018-09-23T01:03:09.862Z,1002.22
2018-09-23T01:04:09.860Z,1002.20
2018-09-23T01:05:09.812Z,1002.16
2018-09-23T01:06:09.791Z,1002.15
2018-09-23T01:07:09.758Z,1002.15
2018-09-23T01:08:09.730Z,1002.15
2018-09-23T01:09:09.716Z,1002.19
2018-09-23T01:10:09.676Z,1002.22
2018-09-23T01:11:09.651Z,1002.18
2018-09-23T01:12:09.633Z,1002.21
2018-09-23T01:13:09.607Z,1002.22
2018-09-23T01:14:09.583Z,1002.25
2018-09-23T01:15:09.549Z,1002.25
2018-09-23T01:16:09.525Z,1002.25
2018-09-23T01:17:09.502Z,1002.30
2018-09-23T01:18:09.471Z,1002.32
2018-09-23T01:19:09.445Z,1002.34
2018-09-23T01:20:09.419Z,1002.30
2018-09-23T01:21:09.391Z,1002.29
2018-09-23T01:22:09.369Z,1002.22
2018-09-23T01:23:09.338Z,1002.17
2018-09-23T01:24:09.316Z,1002.12
2018-09-23T01:25:09.282Z,1002.12
2018-09-23T01:26:09.270Z,1002.11
2018-09-23T01:27:09.240Z,1002.14
2018-09-23T01:28:09.207Z,1002.16
2018-09-23T01:29:09.186Z,1002.11
2018-09-23T01:30:09.152Z,1002.05
2018-09-23T01:31:09.129Z,1002.08
2018-09-23T01:32:09.112Z,1002.06
2018-09-23T01:33:09.076Z,1002.09
2018-09-23T01:34:09.058Z,1002.05
2018-09-23T01:35:09.031Z,1002.07
2018-09-23T01:36:08.999Z,1002.07
2018-09-23T01:37:08.972Z,1002.09
2018-09-23T01:38:08.951Z,1002.08
2018-09-23T01:39:08.924Z,1002.07
2018-09-23T01:40:08.895Z,1002.00
2018-09-23T01:41:08.865Z,1001.96
2018-09-23T01:42:08.843Z,1001.93
2018-09-23T01:43:08.810Z,1001.94
2018-09-23T01:44:08.790Z,1001.86
2018-09-23T01:45:08.766Z,1001.90
2018-09-23T01:46:08.738Z,1001.92
2018-09-23T01:47:08.712Z,1001.95
2018-09-23T01:48:08.680Z,1001.93
2018-09-23T01:49:08.651Z,1001.92
2018-09-23T01:50:08.637Z,1001.92
2018-09-23T01:51:08.730Z,1001.85
2018-09-23T01:52:08.578Z,1001.83
2018-09-23T01:53:08.558Z,1001.76
2018-09-23T01:54:08.528Z,1001.72
2018-09-23T01:55:08.501Z,1001.65
2018-09-23T01:56:08.476Z,1001.61
2018-09-23T01:57:08.453Z,1001.53
2018-09-23T01:58:08.423Z,1001.57
2018-09-23T01:59:08.391Z,1001.48
2018-09-23T02:00:08.371Z,1001.44
2018-09-23T02:01:08.338Z,1001.34
2018-09-23T02:02:08.318Z,1001.35
2018-09-23T02:03:08.293Z,1001.37
2018-09-23T02:04:08.269Z,1001.42
2018-09-23T02:05:08.232Z,1001.45
2018-09-23T02:06:08.223Z,1001.43
2018-09-23T02:07:08.186Z,1001.40
2018-09-23T02:08:08.151Z,1001.39
2018-09-23T02:09:08.135Z,1001.33
2018-09-23T02:10:08.106Z,1001.31
2018-09-23T02:11:08.079Z,1001.39
2018-09-23T02:12:08.054Z,1001.37
2018-09-23T02:13:08.024Z,1001.41
2018-09-23T02:14:08.005Z,1001.35
2018-09-23T02:15:07.973Z,1001.32
2018-09-23T02:16:07.949Z,1001.25
2018-09-23T02:17:07.920Z,1001.25
2018-09-23T02:18:07.895Z,1001.22
2018-09-23T02:19:07.863Z,1001.21
2018-09-23T02:20:07.843Z,1001.13
2018-09-23T02:21:07.816Z,1001.09
2018-09-23T02:22:07.790Z,1001.10
2018-09-23T02:23:07.770Z,1001.12
2018-09-23T02:24:07.741Z,1001.10
2018-09-23T02:25:07.705Z,1001.09
2018-09-23T02:26:07.694Z,1001.13
2018-09-23T02:27:07.666Z,1001.11
2018-09-23T02:28:07.630Z,1001.07
2018-09-23T02:29:07.624Z,1001.04
2018-09-23T02:30:07.581Z,1000.99
2018-09-23T02:31:07.555Z,1000.99
2018-09-23T02:32:07.526Z,1000.97
2018-09-23T02:33:07.495Z,1001.03
2018-09-23T02:34:07.478Z,1001.00
2018-09-23T02:35:07.451Z,1000.92
2018-09-23T02:36:07.419Z,1000.96
2018-09-23T02:37:07.391Z,1000.96
2018-09-23T02:38:07.375Z,1001.00
2018-09-23T02:39:07.347Z,1000.95
2018-09-23T02:40:07.311Z,1000.94
2018-09-23T02:41:07.288Z,1000.95
2018-09-23T02:42:07.266Z,1000.99
2018-09-23T02:43:07.233Z,1000.97
2018-09-23T02:44:07.214Z,1000.94
2018-09-23T02:45:07.187Z,1000.97
2018-09-23T02:46:07.163Z,1000.94
2018-09-23T02:47:07.135Z,1000.89
2018-09-23T02:48:07.102Z,1000.85
2018-09-23T02:49:07.079Z,1000.81
2018-09-23T02:50:07.057Z,1000.83
2018-09-23T02:51:07.024Z,1000.83
2018-09-23T02:52:07.002Z,1000.84
2018-09-23T02:53:06.979Z,1000.80
2018-09-23T02:54:06.950Z,1000.83
2018-09-23T02:55:06.922Z,1000.82
2018-09-23T02:56:06.893Z,1000.81
2018-09-23T02:57:06.868Z,1000.77
2018-09-23T02:58:06.846Z,1000.72
2018-09-23T02:59:06.820Z,1000.71
2018-09-23T03:00:06.793Z,1000.70
2018-09-23T03:01:06.775Z,1000.73
2018-09-23T03:02:06.735Z,1000.73
2018-09-23T03:03:06.714Z,1000.68
2018-09-23T03:04:06.684Z,1000.71
2018-09-23T03:05:06.662Z,1000.73
2018-09-23T03:06:06.633Z,1000.72
2018-09-23T03:07:06.607Z,1000.71
2018-09-23T03:08:06.590Z,1000.72
2018-09-23T03:09:06.555Z,1000.68
2018-09-23T03:10:06.534Z,1000.66
2018-09-23T03:11:06.510Z,1000.65
2018-09-23T03:12:06.476Z,1000.61
2018-09-23T03:13:06.453Z,1000.62
2018-09-23T03:14:06.421Z,1000.61
2018-09-23T03:15:06.401Z,1000.60
2018-09-23T03:16:06.366Z,1000.56
2018-09-23T03:17:06.344Z,1000.53
2018-09-23T03:18:06.324Z,1000.49
2018-09-23T03:19:06.295Z,1000.48
2018-09-23T03:20:06.270Z,1000.51
2018-09-23T03:21:06.235Z,1000.48
2018-09-23T03:22:06.220Z,1000.42
2018-09-23T03:23:06.190Z,1000.46
2018-09-23T03:24:06.166Z,1000.46
2018-09-23T03:25:06.140Z,1000.47
2018-09-23T03:26:06.107Z,1000.48
2018-09-23T03:27:06.089Z,1000.46
2018-09-23T03:28:06.064Z,1000.45
2018-09-23T03:29:06.032Z,1000.48
2018-09-23T03:30:06.005Z,1000.48
2018-09-23T03:31:05.983Z,1000.49
2018-09-23T03:32:05.955Z,1000.39
2018-09-23T03:33:05.922Z,1000.35
2018-09-23T03:34:05.903Z,1000.37
2018-09-23T03:35:05.870Z,1000.34
2018-09-23T03:36:05.850Z,1000.31
2018-09-23T03:37:05.820Z,1000.22
2018-09-23T03:38:05.796Z,1000.17
2018-09-23T03:39:05.768Z,1000.16
2018-09-23T03:40:05.742Z,1000.18
2018-09-23T03:41:05.718Z,1000.20
2018-09-23T03:42:05.689Z,1000.18
2018-09-23T03:43:05.658Z,1000.18
2018-09-23T03:44:05.634Z,1000.22
2018-09-23T03:45:05.617Z,1000.20
2018-09-23T03:46:05.592Z,1000.15
2018-09-23T03:47:05.562Z,1000.09
2018-09-23T03:48:05.532Z,1000.07
2018-09-23T03:49:05.505Z,1000.00
2018-09-23T03:50:05.484Z,1000.03
2018-09-23T03:51:05.455Z,1000.06
2018-09-23T03:52:05.432Z,1000.03
2018-09-23T03:53:05.397Z,1000.05
2018-09-23T03:54:05.418Z,1000.00
2018-09-23T03:55:05.357Z,999.96
2018-09-23T03:56:05.322Z,999.93
2018-09-23T03:57:05.292Z,999.89
2018-09-23T03:58:05.287Z,999.87
2018-09-23T03:59:05.247Z,999.86
2018-09-23T04:00:05.226Z,999.85
2018-09-23T04:01:05.193Z,999.84
2018-09-23T04:02:05.167Z,999.76
2018-09-23T04:03:05.142Z,999.71
2018-09-23T04:04:05.111Z,999.68
2018-09-23T04:05:05.088Z,999.65
2018-09-23T04:06:05.069Z,999.67
2018-09-23T04:07:05.043Z,999.68
2018-09-23T04:08:05.010Z,999.69
2018-09-23T04:09:04.983Z,999.63
2018-09-23T04:10:04.959Z,999.62
2018-09-23T04:11:04.938Z,999.54
2018-09-23T04:12:04.964Z,999.44
2018-09-23T04:13:04.875Z,999.41
2018-09-23T04:14:04.850Z,999.41
2018-09-23T04:15:04.830Z,999.36
2018-09-23T04:16:04.810Z,999.35
2018-09-23T04:17:04.768Z,999.37
2018-09-23T04:18:04.751Z,999.31
2018-09-23T04:19:04.729Z,999.31
2018-09-23T04:20:04.690Z,999.30
2018-09-23T04:21:04.666Z,999.31
2018-09-23T04:22:04.647Z,999.29
2018-09-23T04:23:04.620Z,999.21
2018-09-23T04:24:04.590Z,999.17
2018-09-23T04:25:04.563Z,999.09
2018-09-23T04:26:04.546Z,999.06
2018-09-23T04:27:04.520Z,999.00
2018-09-23T04:28:04.482Z,999.09
2018-09-23T04:29:04.467Z,999.08
2018-09-23T04:30:04.432Z,999.10
2018-09-23T04:31:04.410Z,999.08
2018-09-23T04:32:04.381Z,999.10
2018-09-23T04:33:04.351Z,999.16
2018-09-23T04:34:04.323Z,999.16
2018-09-23T04:35:04.296Z,999.13
2018-09-23T04:36:04.277Z,999.12
2018-09-23T04:37:04.243Z,999.10
2018-09-23T04:38:04.229Z,999.10
2018-09-23T04:39:04.198Z,999.09
2018-09-23T04:40:04.168Z,999.08
2018-09-23T04:41:04.147Z,999.07
2018-09-23T04:42:04.118Z,999.01
2018-09-23T04:43:04.095Z,998.96
2018-09-23T04:44:04.061Z,998.97
2018-09-23T04:45:04.098Z,998.98
2018-09-23T04:46:04.013Z,998.97
2018-09-23T04:47:03.988Z,998.95
2018-09-23T04:48:03.963Z,998.95
2018-09-23T04:49:03.936Z,999.04
2018-09-23T04:50:03.914Z,999.06
2018-09-23T04:51:03.888Z,999.11
2018-09-23T04:52:03.850Z,999.14
2018-09-23T04:53:03.826Z,999.17
2018-09-23T04:54:03.802Z,999.21
2018-09-23T04:55:03.777Z,999.19
2018-09-23T04:56:03.748Z,999.16
2018-09-23T04:57:03.718Z,999.20
2018-09-23T04:58:03.703Z,999.20
2018-09-23T04:59:03.667Z,999.22
2018-09-23T05:00:03.646Z,999.17
2018-09-23T05:01:03.614Z,999.20
2018-09-23T05:02:03.591Z,999.15
2018-09-23T05:03:03.563Z,999.12
2018-09-23T05:04:03.536Z,999.12
2018-09-23T05:05:03.515Z,999.16
2018-09-23T05:06:03.487Z,999.12
2018-09-23T05:07:03.463Z,999.13
2018-09-23T05:08:03.431Z,999.15
2018-09-23T05:09:03.406Z,999.18
2018-09-23T05:10:03.385Z,999.16
2018-09-23T05:11:03.359Z,999.16
2018-09-23T05:12:03.323Z,999.13
2018-09-23T05:13:03.301Z,999.13
2018-09-23T05:14:03.283Z,999.14
2018-09-23T05:15:03.251Z,999.13
2018-09-23T05:16:03.230Z,999.16
2018-09-23T05:17:03.203Z,999.15
2018-09-23T05:18:03.173Z,999.13
2018-09-23T05:19:03.139Z,999.06
2018-09-23T05:20:03.119Z,999.02
2018-09-23T05:21:03.100Z,998.97
2018-09-23T05:22:03.066Z,998.95
2018-09-23T05:23:03.040Z,998.93
2018-09-23T05:24:03.024Z,998.94
2018-09-23T05:25:02.993Z,998.96
2018-09-23T05:26:02.957Z,998.96
2018-09-23T05:27:02.938Z,998.99
2018-09-23T05:28:02.908Z,998.96
2018-09-23T05:29:02.880Z,998.97
2018-09-23T05:30:02.859Z,998.98
2018-09-23T05:31:02.861Z,998.96
2018-09-23T05:32:02.813Z,998.91
2018-09-23T05:33:02.782Z,998.83
2018-09-23T05:34:02.756Z,998.81
2018-09-23T05:35:02.750Z,998.82
2018-09-23T05:36:02.700Z,998.82
2018-09-23T05:37:02.672Z,998.84
2018-09-23T05:38:02.656Z,998.86
2018-09-23T05:39:02.614Z,998.83
2018-09-23T05:40:02.598Z,998.81
2018-09-23T05:41:02.564Z,998.79
2018-09-23T05:42:02.546Z,998.76
2018-09-23T05:43:02.522Z,998.75
2018-09-23T05:44:02.516Z,998.77
2018-09-23T05:45:02.469Z,998.72
2018-09-23T05:46:02.435Z,998.69
2018-09-23T05:47:02.410Z,998.73
2018-09-23T05:48:02.388Z,998.69
2018-09-23T05:49:02.357Z,998.70
2018-09-23T05:50:02.329Z,998.71
2018-09-23T05:51:02.307Z,998.73
2018-09-23T05:52:02.275Z,998.74
2018-09-23T05:53:02.304Z,998.76
2018-09-23T05:54:02.379Z,998.81
2018-09-23T05:55:02.326Z,998.78
2018-09-23T05:56:02.177Z,998.75
2018-09-23T05:57:02.146Z,998.73
2018-09-23T05:58:02.122Z,998.72
2018-09-23T05:59:02.090Z,998.71
2018-09-23T06:00:02.078Z,998.75
2018-09-23T06:01:02.042Z,998.73
2018-09-23T06:02:02.050Z,998.78
2018-09-23T06:03:02.056Z,998.72
2018-09-23T06:04:01.973Z,998.71
2018-09-23T06:05:01.939Z,998.61
2018-09-23T06:06:01.927Z,998.58
2018-09-23T06:07:01.885Z,998.57
2018-09-23T06:08:01.865Z,998.58
2018-09-23T06:09:01.840Z,998.56
2018-09-23T06:10:01.826Z,998.56
2018-09-23T06:11:01.839Z,998.50
2018-09-23T06:12:01.753Z,998.52
2018-09-23T06:13:01.724Z,998.47
2018-09-23T06:14:01.706Z,998.47
2018-09-23T06:15:01.681Z,998.45
2018-09-23T06:16:01.648Z,998.45
2018-09-23T06:17:01.624Z,998.48
2018-09-23T06:18:02.537Z,998.51
2018-09-23T06:19:01.592Z,998.50
2018-09-23T06:20:01.547Z,998.47
2018-09-23T06:21:01.521Z,998.46
2018-09-23T06:22:01.497Z,998.45
2018-09-23T06:23:01.468Z,998.42
2018-09-23T06:24:01.439Z,998.42
2018-09-23T06:25:01.476Z,998.43
2018-09-23T06:26:01.392Z,998.42
2018-09-23T06:27:01.362Z,998.41
2018-09-23T06:28:01.339Z,998.41
2018-09-23T06:29:01.314Z,998.44
2018-09-23T06:30:01.288Z,998.50
2018-09-23T06:31:01.259Z,998.47
2018-09-23T06:32:01.229Z,998.47
2018-09-23T06:33:01.199Z,998.44
2018-09-23T06:34:01.224Z,998.45
2018-09-23T06:35:01.155Z,998.51
2018-09-23T06:36:01.126Z,998.54
2018-09-23T06:37:01.156Z,998.53
2018-09-23T06:38:01.084Z,998.56
2018-09-23T06:39:01.046Z,998.60
2018-09-23T06:40:01.022Z,998.55
2018-09-23T06:41:00.993Z,998.60
2018-09-23T06:42:00.976Z,998.55
2018-09-23T06:43:00.941Z,998.52
2018-09-23T06:44:00.922Z,998.47
2018-09-23T06:45:00.889Z,998.44
2018-09-23T06:46:00.871Z,998.45
2018-09-23T06:47:00.840Z,998.40
2018-09-23T06:48:00.819Z,998.39
2018-09-23T06:49:00.790Z,998.32
2018-09-23T06:50:00.756Z,998.24
2018-09-23T06:51:00.753Z,998.24
2018-09-23T06:52:00.700Z,998.21
2018-09-23T06:53:00.680Z,998.20
2018-09-23T06:54:00.662Z,998.20
2018-09-23T06:55:00.631Z,998.22
2018-09-23T06:56:00.609Z,998.17
2018-09-23T06:57:00.631Z,998.19
2018-09-23T06:58:00.555Z,998.17
2018-09-23T06:59:00.520Z,998.19
2018-09-23T07:00:00.500Z,998.16
2018-09-23T07:01:00.473Z,998.19
2018-09-23T07:02:00.444Z,998.25
2018-09-23T07:03:00.418Z,998.29
2018-09-23T07:04:00.395Z,998.30
2018-09-23T07:05:00.496Z,998.28
2018-09-23T07:06:00.354Z,998.33
2018-09-23T07:07:00.312Z,998.36
2018-09-23T07:08:00.292Z,998.35
2018-09-23T07:09:00.260Z,998.28
2018-09-23T07:10:00.240Z,998.29
2018-09-23T07:11:00.214Z,998.30
2018-09-23T07:12:00.185Z,998.34
2018-09-23T07:13:00.158Z,998.36
2018-09-23T07:14:00.136Z,998.42
2018-09-23T07:15:00.109Z,998.42
2018-09-23T07:16:00.075Z,998.39
2018-09-23T07:17:00.081Z,998.38
2018-09-23T07:18:00.084Z,998.39
2018-09-23T07:19:00.002Z,998.44
2018-09-23T07:19:59.968Z,998.39
2018-09-23T07:20:59.945Z,998.36
2018-09-23T07:21:59.925Z,998.37
2018-09-23T07:23:00.011Z,998.34
2018-09-23T07:23:59.986Z,998.30
2018-09-23T07:24:59.847Z,998.30
2018-09-23T07:25:59.812Z,998.29
2018-09-23T07:26:59.784Z,998.30
2018-09-23T07:27:59.768Z,998.33
2018-09-23T07:28:59.747Z,998.34
2018-09-23T07:29:59.730Z,998.31
2018-09-23T07:30:59.686Z,998.28
2018-09-23T07:31:59.702Z,998.20
2018-09-23T07:32:59.641Z,998.17
2018-09-23T07:33:59.612Z,998.10
2018-09-23T07:34:59.585Z,997.99
2018-09-23T07:35:59.550Z,997.92
2018-09-23T07:36:59.639Z,997.94
2018-09-23T07:37:59.503Z,997.89
2018-09-23T07:38:59.478Z,997.94
2018-09-23T07:39:59.491Z,997.88
2018-09-23T07:40:59.430Z,997.90
2018-09-23T07:41:59.412Z,997.90
2018-09-23T07:42:59.867Z,997.94
2018-09-23T07:43:59.344Z,997.95
2018-09-23T07:44:59.322Z,997.91
2018-09-23T07:45:59.293Z,997.94
2018-09-23T07:46:59.272Z,997.93
2018-09-23T07:47:59.257Z,997.96
2018-09-23T07:48:59.214Z,997.94
2018-09-23T07:49:59.215Z,997.97
2018-09-23T07:50:59.165Z,997.88
2018-09-23T07:51:59.137Z,997.90
2018-09-23T07:52:59.111Z,997.82
2018-09-23T07:53:59.090Z,997.84
2018-09-23T07:54:59.059Z,997.86
2018-09-23T07:55:59.039Z,997.86
2018-09-23T07:56:59.046Z,997.83
2018-09-23T07:57:58.987Z,997.83
2018-09-23T07:58:58.952Z,997.76
2018-09-23T07:59:58.925Z,997.73
2018-09-23T08:00:58.910Z,997.71
2018-09-23T08:01:58.882Z,997.65
2018-09-23T08:02:59.075Z,997.61
2018-09-23T08:03:58.827Z,997.59
2018-09-23T08:04:58.801Z,997.54
2018-09-23T08:05:58.779Z,997.52
2018-09-23T08:06:58.752Z,997.56
2018-09-23T08:07:58.718Z,997.50
2018-09-23T08:08:58.692Z,997.47
2018-09-23T08:09:58.674Z,997.46
2018-09-23T08:10:58.646Z,997.44
2018-09-23T08:11:58.615Z,997.47
2018-09-23T08:12:58.776Z,997.49
2018-09-23T08:13:58.842Z,997.52
2018-09-23T08:14:58.796Z,997.53
2018-09-23T08:15:58.517Z,997.57
2018-09-23T08:16:58.482Z,997.61
2018-09-23T08:17:58.469Z,997.59
2018-09-23T08:18:58.435Z,997.63
2018-09-23T08:19:58.427Z,997.58
2018-09-23T08:20:58.483Z,997.56
2018-09-23T08:21:58.364Z,997.59
2018-09-23T08:22:58.334Z,997.60
2018-09-23T08:23:58.309Z,997.55
2018-09-23T08:24:58.313Z,997.58
2018-09-23T08:25:58.258Z,997.53
2018-09-23T08:26:58.228Z,997.53
2018-09-23T08:27:58.206Z,997.56
2018-09-23T08:28:58.178Z,997.51
2018-09-23T08:29:58.155Z,997.46
2018-09-23T08:30:58.127Z,997.45
2018-09-23T08:31:58.098Z,997.45
2018-09-23T08:32:58.102Z,997.46
2018-09-23T08:33:58.044Z,997.45
2018-09-23T08:34:58.023Z,997.48
2018-09-23T08:35:57.990Z,997.41
2018-09-23T08:36:57.968Z,997.42
2018-09-23T08:37:57.952Z,997.42
2018-09-23T08:38:57.921Z,997.47
2018-09-23T08:39:57.941Z,997.46
2018-09-23T08:40:57.864Z,997.50
2018-09-23T08:41:57.840Z,997.54
2018-09-23T08:42:57.879Z,997.56
2018-09-23T08:43:57.784Z,997.60
2018-09-23T08:44:57.765Z,997.64
2018-09-23T08:45:57.730Z,997.67
2018-09-23T08:46:57.711Z,997.65
2018-09-23T08:47:57.728Z,997.66
2018-09-23T08:48:57.671Z,997.70
2018-09-23T08:49:57.627Z,997.67
2018-09-23T08:50:57.612Z,997.68
2018-09-23T08:51:57.639Z,997.67
2018-09-23T08:52:57.552Z,997.63
2018-09-23T08:53:57.527Z,997.59
2018-09-23T08:54:57.499Z,997.56
2018-09-23T08:55:57.491Z,997.47
2018-09-23T08:56:57.444Z,997.44
2018-09-23T08:57:57.436Z,997.38
2018-09-23T08:58:57.398Z,997.31
2018-09-23T08:59:57.369Z,997.33
2018-09-23T09:00:57.345Z,997.25
2018-09-23T09:01:57.330Z,997.23
2018-09-23T09:02:57.297Z,997.22
2018-09-23T09:03:57.275Z,997.16
2018-09-23T09:04:57.249Z,997.17
2018-09-23T09:05:57.217Z,997.12
2018-09-23T09:06:57.188Z,997.03
2018-09-23T09:07:57.161Z,996.92
2018-09-23T09:08:57.132Z,996.92
2018-09-23T09:09:57.120Z,996.86
2018-09-23T09:10:57.089Z,996.85
2018-09-23T09:11:57.088Z,996.88
2018-09-23T09:12:57.031Z,996.90
2018-09-23T09:13:57.006Z,996.86
2018-09-23T09:14:56.983Z,996.88
2018-09-23T09:15:56.955Z,996.88
2018-09-23T09:16:56.927Z,996.82
2018-09-23T09:17:56.899Z,996.80
2018-09-23T09:18:56.912Z,996.86
2018-09-23T09:19:56.856Z,996.85
2018-09-23T09:20:56.820Z,996.83
2018-09-23T09:21:56.806Z,996.86
2018-09-23T09:22:56.772Z,996.91
2018-09-23T09:23:56.751Z,996.95
2018-09-23T09:24:56.723Z,996.96
2018-09-23T09:25:56.708Z,997.02
2018-09-23T09:26:56.672Z,996.97
2018-09-23T09:27:56.653Z,996.90
2018-09-23T09:28:56.613Z,996.84
2018-09-23T09:29:56.598Z,996.74
2018-09-23T09:30:56.565Z,996.75
2018-09-23T09:31:56.547Z,996.75
2018-09-23T09:32:56.515Z,996.73
2018-09-23T09:33:56.488Z,996.73
2018-09-23T09:34:56.462Z,996.67
2018-09-23T09:35:56.430Z,996.70
2018-09-23T09:36:56.406Z,996.68
2018-09-23T09:37:56.391Z,996.67
2018-09-23T09:38:56.359Z,996.63
2018-09-23T09:39:56.339Z,996.63
2018-09-23T09:40:56.307Z,996.63
2018-09-23T09:41:56.290Z,996.59
2018-09-23T09:42:56.254Z,996.59
2018-09-23T09:43:56.323Z,996.56
2018-09-23T09:44:56.201Z,996.50
2018-09-23T09:45:56.180Z,996.46
2018-09-23T09:46:56.149Z,996.42
2018-09-23T09:47:56.129Z,996.36
2018-09-23T09:48:56.097Z,996.34
2018-09-23T09:49:56.080Z,996.34
2018-09-23T09:50:56.043Z,996.28
2018-09-23T09:51:56.026Z,996.24
2018-09-23T09:52:56.006Z,996.20
2018-09-23T09:53:55.974Z,996.20
2018-09-23T09:54:55.951Z,996.20
2018-09-23T09:55:55.925Z,996.20
2018-09-23T09:56:55.893Z,996.14
2018-09-23T09:57:55.876Z,996.14
2018-09-23T09:58:55.844Z,996.14
2018-09-23T09:59:55.863Z,996.08
2018-09-23T10:00:55.786Z,996.04
2018-09-23T10:01:55.788Z,995.95
2018-09-23T10:02:55.860Z,995.95
2018-09-23T10:03:55.790Z,995.98
2018-09-23T10:04:55.686Z,995.98
2018-09-23T10:05:55.656Z,995.96
2018-09-23T10:06:55.631Z,995.90
2018-09-23T10:07:55.609Z,995.83
2018-09-23T10:08:55.586Z,995.74
2018-09-23T10:09:55.558Z,995.62
2018-09-23T10:10:55.524Z,995.53
2018-09-23T10:11:55.512Z,995.49
2018-09-23T10:12:55.481Z,995.46
2018-09-23T10:13:55.454Z,995.40
2018-09-23T10:14:55.431Z,995.36
2018-09-23T10:15:55.419Z,995.30
2018-09-23T10:16:55.372Z,995.26
2018-09-23T10:17:55.350Z,995.24
2018-09-23T10:18:55.329Z,995.29
2018-09-23T10:19:55.291Z,995.33
2018-09-23T10:20:55.277Z,995.39
2018-09-23T10:21:55.602Z,995.39
2018-09-23T10:22:55.299Z,995.49
2018-09-23T10:23:55.300Z,995.49
2018-09-23T10:24:55.161Z,995.46
2018-09-23T10:25:55.145Z,995.40
2018-09-23T10:26:55.113Z,995.34
2018-09-23T10:27:55.115Z,995.27
2018-09-23T10:28:55.064Z,995.30
2018-09-23T10:29:55.078Z,995.21
2018-09-23T10:30:55.080Z,995.25
2018-09-23T10:31:55.062Z,995.21
2018-09-23T10:32:54.960Z,995.24
2018-09-23T10:33:54.932Z,995.32
2018-09-23T10:34:54.909Z,995.45
2018-09-23T10:35:54.883Z,995.48
2018-09-23T10:36:54.857Z,995.59
2018-09-23T10:37:54.837Z,995.60
2018-09-23T10:38:54.801Z,995.62
2018-09-23T10:39:54.779Z,995.63
2018-09-23T10:40:54.752Z,995.63
2018-09-23T10:41:54.729Z,995.66
2018-09-23T10:42:54.693Z,995.76
2018-09-23T10:43:54.681Z,995.86
2018-09-23T10:44:54.643Z,995.85
2018-09-23T10:45:54.633Z,995.82
2018-09-23T10:46:54.594Z,995.93
2018-09-23T10:47:54.580Z,996.01
2018-09-23T10:48:54.542Z,996.06
2018-09-23T10:49:54.520Z,996.03
2018-09-23T10:50:54.489Z,995.91
2018-09-23T10:51:54.464Z,995.90
2018-09-23T10:52:54.436Z,995.91
2018-09-23T10:53:54.416Z,995.93
2018-09-23T10:54:54.385Z,995.88
2018-09-23T10:55:54.363Z,995.94
2018-09-23T10:56:54.333Z,995.99
2018-09-23T10:57:54.311Z,996.01
2018-09-23T10:58:54.290Z,996.02
2018-09-23T10:59:54.248Z,995.96
2018-09-23T11:00:54.226Z,995.92
2018-09-23T11:01:54.203Z,995.95
2018-09-23T11:02:54.194Z,996.09
2018-09-23T11:03:54.183Z,996.11
2018-09-23T11:04:54.145Z,996.13
2018-09-23T11:05:54.115Z,996.09
2018-09-23T11:06:54.129Z,995.96
2018-09-23T11:07:54.063Z,995.82
2018-09-23T11:08:54.031Z,995.92
2018-09-23T11:09:54.071Z,996.08
2018-09-23T11:10:53.997Z,996.05
2018-09-23T11:11:53.954Z,995.80
2018-09-23T11:12:53.934Z,995.49
2018-09-23T11:13:53.909Z,995.29
2018-09-23T11:14:53.887Z,995.21
2018-09-23T11:15:53.855Z,995.19
2018-09-23T11:16:53.830Z,995.12
2018-09-23T11:17:53.798Z,995.05
2018-09-23T11:18:53.778Z,995.09
2018-09-23T11:19:53.763Z,995.09
2018-09-23T11:20:53.716Z,995.02
2018-09-23T11:21:53.677Z,994.86
2018-09-23T11:22:53.681Z,994.74
2018-09-23T11:23:53.647Z,994.67
2018-09-23T11:24:53.652Z,994.71
2018-09-23T11:25:53.570Z,994.80
2018-09-23T11:26:53.561Z,994.82
2018-09-23T11:27:53.514Z,994.82
2018-09-23T11:28:53.491Z,994.83
2018-09-23T11:29:53.473Z,994.91
2018-09-23T11:30:53.452Z,995.01
2018-09-23T11:31:53.418Z,995.05
2018-09-23T11:32:53.387Z,995.02
2018-09-23T11:33:53.360Z,995.00
2018-09-23T11:34:53.333Z,994.93
2018-09-23T11:35:53.302Z,994.91
2018-09-23T11:36:53.282Z,994.82
2018-09-23T11:37:53.256Z,994.75
2018-09-23T11:38:53.247Z,994.70
2018-09-23T11:39:53.212Z,994.64
2018-09-23T11:40:53.175Z,994.64
2018-09-23T11:41:53.146Z,994.50
2018-09-23T11:42:53.188Z,994.44
2018-09-23T11:43:53.094Z,994.34
2018-09-23T11:44:53.095Z,994.25
2018-09-23T11:45:53.046Z,994.15
2018-09-23T11:46:53.019Z,994.16
2018-09-23T11:47:52.992Z,994.08
2018-09-23T11:48:52.986Z,994.03
2018-09-23T11:49:52.963Z,993.99
2018-09-23T11:50:52.930Z,993.94
2018-09-23T11:51:52.904Z,993.89
2018-09-23T11:52:52.875Z,993.87
2018-09-23T11:53:52.834Z,993.82
2018-09-23T11:54:52.811Z,993.77
2018-09-23T11:55:52.785Z,993.69
2018-09-23T11:56:52.750Z,993.62
2018-09-23T11:57:52.730Z,993.54
2018-09-23T11:58:52.726Z,993.61
2018-09-23T11:59:52.679Z,993.68
2018-09-23T12:00:52.646Z,993.80
2018-09-23T12:01:52.624Z,993.87
2018-09-23T12:02:52.597Z,994.00
2018-09-23T12:03:52.574Z,994.14
2018-09-23T12:04:52.549Z,994.27
2018-09-23T12:05:52.521Z,994.51
2018-09-23T12:06:52.488Z,994.63
2018-09-23T12:07:52.469Z,994.71
2018-09-23T12:08:52.443Z,994.75
2018-09-23T12:09:52.409Z,994.80
2018-09-23T12:10:52.471Z,994.82
2018-09-23T12:11:52.355Z,994.82
2018-09-23T12:12:52.332Z,995.00
2018-09-23T12:13:52.301Z,995.07
2018-09-23T12:14:52.341Z,994.87
2018-09-23T12:15:52.259Z,994.85
2018-09-23T12:16:52.226Z,994.97
2018-09-23T12:17:52.204Z,994.97
2018-09-23T12:18:52.213Z,995.02
2018-09-23T12:19:52.147Z,994.96
2018-09-23T12:20:52.128Z,994.96